Time;durP1;ratioP1;P1;durP2;ratioP2;P2;SDS_P1;SDS_P2;PMS_P1;PMS_P2;Temp;Humidity;BMP_temperature;BMP_pressure;BME280_temperature;BME280_humidity;BME280_pressure;Samples;Min_cycle;Max_cycle;Signal;HPM_P1;HPM_P2
2022/12/21 00:00:13;;;;;;;2.90;2.80;;;9.00;1.00;;;;;;5028431;28;20527;-77
2022/12/21 00:02:41;;;;;;;3.40;3.20;;;9.00;96.70;;;;;;5014960;28;20464;-76
2022/12/21 00:05:10;;;;;;;3.00;2.80;;;9.00;99.90;;;;;;5010844;28;20904;-76
2022/12/21 00:07:38;;;;;;;3.20;3.00;;;9.10;1.00;;;;;;5011118;28;21277;-76
2022/12/21 00:10:07;;;;;;;3.87;3.67;;;9.10;1.00;;;;;;5007732;28;20812;-75
2022/12/21 00:12:36;;;;;;;3.63;3.43;;;9.10;1.00;;;;;;5010879;28;20460;-76
2022/12/21 00:15:04;;;;;;;3.93;3.30;;;9.10;1.00;;;;;;5010259;28;20585;-75
2022/12/21 00:17:34;;;;;;;3.67;3.47;;;9.10;1.00;;;;;;5014355;28;20472;-74
2022/12/21 00:20:09;;;;;;;4.47;3.87;;;9.10;1.00;;;;;;5013607;28;21228;-78
2022/12/21 00:22:37;;;;;;;4.67;4.13;;;9.10;99.90;;;;;;5022103;28;20463;-75
2022/12/21 00:25:06;;;;;;;4.10;3.97;;;9.10;39.20;;;;;;5010935;28;20457;-76
2022/12/21 00:27:34;;;;;;;5.63;4.00;;;9.00;99.90;;;;;;5012279;28;21236;-76
2022/12/21 00:30:03;;;;;;;4.00;3.80;;;9.10;1.00;;;;;;5008454;28;21043;-78
2022/12/21 00:32:31;;;;;;;3.70;3.40;;;9.10;99.90;;;;;;5014752;28;20519;-77
2022/12/21 00:35:01;;;;;;;4.53;4.13;;;9.20;99.90;;;;;;5010146;28;20460;-75
2022/12/21 00:37:29;;;;;;;4.13;3.70;;;9.10;1.00;;;;;;5014994;28;20462;-78
2022/12/21 00:39:57;;;;;;;4.80;4.00;;;9.10;99.90;;;;;;5007980;28;20460;-76
2022/12/21 00:42:25;;;;;;;4.63;4.37;;;9.10;99.90;;;;;;5009426;28;20868;-76
2022/12/21 00:44:53;;;;;;;3.70;3.50;;;9.10;37.30;;;;;;5006035;28;21151;-77
2022/12/21 00:47:21;;;;;;;4.93;3.90;;;9.00;1.00;;;;;;5008090;28;21014;-78
2022/12/21 00:49:50;;;;;;;4.00;3.80;;;9.10;1.00;;;;;;5011616;28;21058;-75
2022/12/21 00:52:19;;;;;;;3.77;3.60;;;9.10;1.00;;;;;;5010177;28;21330;-77
2022/12/21 00:54:48;;;;;;;4.00;3.80;;;9.10;99.90;;;;;;5004649;28;20546;-76
2022/12/21 00:57:16;;;;;;;4.03;3.67;;;9.00;31.30;;;;;;5009201;28;20480;-76
2022/12/21 00:59:44;;;;;;;3.33;3.23;;;9.00;99.90;;;;;;5009219;28;20479;-76
2022/12/21 01:02:12;;;;;;;4.40;4.20;;;9.10;99.90;;;;;;5007956;28;20484;-75
2022/12/21 01:04:40;;;;;;;3.93;3.73;;;9.00;1.00;;;;;;5011688;28;20867;-77
2022/12/21 01:07:08;;;;;;;4.33;4.07;;;9.00;30.30;;;;;;5010978;28;20900;-75
2022/12/21 01:09:38;;;;;;;5.03;4.60;;;9.00;99.90;;;;;;5010090;28;20558;-77
2022/12/21 01:12:06;;;;;;;4.47;4.07;;;9.00;1.00;;;;;;5010645;28;20457;-75
2022/12/21 01:14:34;;;;;;;4.23;3.93;;;9.10;99.90;;;;;;5006080;28;20453;-76
2022/12/21 01:17:02;;;;;;;5.27;4.80;;;9.00;99.90;;;;;;5010041;28;20577;-75
2022/12/21 01:19:30;;;;;;;5.07;4.80;;;8.90;1.00;;;;;;5013230;28;20538;-77
2022/12/21 01:21:58;;;;;;;4.67;4.40;;;8.90;99.90;;;;;;5012001;28;20552;-76
2022/12/21 01:24:26;;;;;;;5.00;4.70;;;8.90;99.90;;;;;;5007134;28;20820;-76
2022/12/21 01:26:56;;;;;;;7.60;4.67;;;8.90;99.90;;;;;;5012192;28;20573;-75
2022/12/21 01:29:24;;;;;;;4.87;4.57;;;8.90;99.90;;;;;;5011168;28;21332;-76
2022/12/21 01:31:52;;;;;;;4.73;4.53;;;8.90;1.00;;;;;;5011271;28;20585;-77
2022/12/21 01:34:20;;;;;;;5.17;4.83;;;8.80;1.00;;;;;;5011108;28;21032;-76
2022/12/21 01:36:48;;;;;;;5.43;5.03;;;8.80;1.00;;;;;;5014219;28;20562;-77
2022/12/21 01:39:17;;;;;;;4.73;4.50;;;8.80;61.00;;;;;;5005628;28;20453;-74
2022/12/21 01:41:45;;;;;;;5.17;4.87;;;8.70;99.90;;;;;;5014160;28;20568;-76
2022/12/21 01:44:56;;;;;;;5.07;4.53;;;8.80;99.90;;;;;;5008891;28;20449;-75
2022/12/21 01:47:30;;;;;;;5.13;4.83;;;8.80;99.90;;;;;;4992356;28;20476;-74
2022/12/21 01:50:02;;;;;;;5.57;5.27;;;8.80;99.90;;;;;;5008611;28;20466;-76
2022/12/21 01:52:31;;;;;;;5.50;5.10;;;8.80;99.90;;;;;;5014054;28;20464;-76
2022/12/21 01:55:05;;;;;;;5.50;5.10;;;8.80;1.00;;;;;;5006427;28;20573;-75
2022/12/21 01:57:35;;;;;;;5.90;5.60;;;8.80;1.00;;;;;;5006954;28;20469;-76
2022/12/21 02:00:05;;;;;;;5.97;5.67;;;8.80;1.00;;;;;;5011503;28;20471;-75
2022/12/21 02:02:39;;;;;;;6.07;5.67;;;8.80;1.00;;;;;;5013307;28;20478;-76
2022/12/21 02:05:15;;;;;;;6.00;5.80;;;8.80;1.00;;;;;;5011140;28;20515;-76
2022/12/21 02:07:45;;;;;;;5.70;5.40;;;8.90;1.00;;;;;;5011046;28;20543;-77
2022/12/21 02:10:14;;;;;;;6.30;6.10;;;8.90;1.00;;;;;;5009054;28;20526;-75
2022/12/21 02:12:44;;;;;;;6.50;6.17;;;8.90;1.00;;;;;;5013880;28;20457;-73
2022/12/21 02:15:12;;;;;;;6.33;6.13;;;9.00;1.00;;;;;;5013387;28;20459;-75
2022/12/21 02:17:50;;;;;;;7.07;6.77;;;8.90;1.00;;;;;;5014506;28;21015;-76
2022/12/21 02:20:45;;;;;;;7.23;6.93;;;8.90;1.00;;;;;;5004040;28;20566;-75
2022/12/21 02:23:40;;;;;;;6.87;6.57;;;8.90;1.00;;;;;;5009457;28;20706;-76
2022/12/21 02:26:58;;;;;;;7.10;6.80;;;9.00;1.00;;;;;;5004008;28;20467;-76
2022/12/21 02:30:06;;;;;;;7.20;6.90;;;9.00;1.00;;;;;;5006539;28;20463;-77
2022/12/21 02:32:52;;;;;;;7.70;7.00;;;9.00;1.00;;;;;;5008222;28;20785;-74
2022/12/21 02:35:30;;;;;;;6.90;6.60;;;8.90;1.00;;;;;;5012576;28;20493;-76
2022/12/21 02:38:08;;;;;;;7.77;7.47;;;9.10;1.00;;;;;;5010403;28;20839;-76
2022/12/21 02:40:45;;;;;;;8.03;7.43;;;9.10;1.00;;;;;;5006647;28;20477;-75
2022/12/21 02:46:12;;;;;;;7.23;6.93;;;9.10;1.00;;;;;;5011219;28;20452;-75
2022/12/21 02:48:48;;;;;;;7.50;7.20;;;9.10;1.00;;;;;;5007121;28;20717;-76
2022/12/21 02:51:22;;;;;;;7.70;7.40;;;9.10;1.00;;;;;;5010839;28;20448;-76
2022/12/21 02:53:51;;;;;;;7.80;7.50;;;9.10;1.00;;;;;;5006275;28;20453;-75
2022/12/21 02:56:20;;;;;;;8.20;7.80;;;9.10;1.00;;;;;;5011009;28;20467;-76
2022/12/21 02:58:48;;;;;;;7.80;7.50;;;9.00;1.00;;;;;;5009984;28;20484;-76
2022/12/21 03:01:35;;;;;;;7.83;7.57;;;9.10;1.00;;;;;;5007809;28;20468;-75
2022/12/21 03:04:38;;;;;;;8.77;8.13;;;9.10;1.00;;;;;;5007267;28;20456;-75
2022/12/21 03:07:37;;;;;;;9.17;8.67;;;9.10;1.00;;;;;;5006994;28;20479;-76
2022/12/21 03:10:15;;;;;;;9.10;8.70;;;9.20;1.00;;;;;;5004323;28;20566;-75
2022/12/21 03:12:55;;;;;;;9.33;8.87;;;9.10;1.00;;;;;;5003037;28;20540;-74
2022/12/21 03:15:31;;;;;;;9.10;8.70;;;9.10;1.00;;;;;;5012483;28;21136;-75
2022/12/21 03:18:07;;;;;;;8.80;8.53;;;9.20;1.00;;;;;;5011275;28;20839;-76
2022/12/21 03:20:41;;;;;;;9.13;8.83;;;9.10;1.00;;;;;;5012352;28;21493;-75
2022/12/21 03:23:16;;;;;;;9.13;8.73;;;9.10;1.00;;;;;;5009742;28;20480;-75
2022/12/21 03:25:51;;;;;;;8.83;8.43;;;9.10;1.00;;;;;;5013327;28;20555;-74
2022/12/21 03:28:25;;;;;;;9.57;9.07;;;9.00;1.00;;;;;;5013558;28;21049;-76
2022/12/21 03:30:56;;;;;;;8.97;8.67;;;9.10;1.00;;;;;;5009530;28;20840;-74
2022/12/21 03:33:29;;;;;;;8.83;8.53;;;9.00;1.00;;;;;;5012807;28;21351;-75
2022/12/21 03:36:05;;;;;;;8.60;8.30;;;8.90;1.00;;;;;;5009098;28;20456;-75
2022/12/21 03:38:36;;;;;;;8.90;8.60;;;9.00;1.00;;;;;;5018003;28;20486;-75
2022/12/21 03:41:09;;;;;;;8.80;8.30;;;9.00;1.00;;;;;;5017172;28;20464;-75
2022/12/21 03:43:37;;;;;;;9.07;8.67;;;8.90;1.00;;;;;;5014194;28;20479;-76
2022/12/21 03:46:08;;;;;;;9.30;9.00;;;9.00;1.00;;;;;;5009650;28;20463;-75
2022/12/21 03:48:41;;;;;;;8.03;7.83;;;9.00;1.00;;;;;;5016546;28;20813;-75
2022/12/21 03:51:17;;;;;;;8.20;7.93;;;8.90;1.00;;;;;;5015966;28;20862;-75
2022/12/21 03:53:49;;;;;;;8.67;8.37;;;9.00;1.00;;;;;;5011560;28;20574;-74
2022/12/21 03:56:22;;;;;;;8.90;8.50;;;9.00;1.00;;;;;;5018342;28;21335;-75
2022/12/21 03:58:51;;;;;;;8.63;8.30;;;9.00;1.00;;;;;;5013307;28;20525;-74
2022/12/21 04:01:26;;;;;;;9.20;8.73;;;9.00;1.00;;;;;;5018441;28;20547;-75
2022/12/21 04:03:59;;;;;;;9.10;8.60;;;9.00;1.00;;;;;;5016092;28;20469;-75
2022/12/21 04:06:32;;;;;;;9.13;8.70;;;9.10;1.00;;;;;;5011804;28;20440;-76
2022/12/21 04:09:02;;;;;;;8.80;8.30;;;9.10;1.00;;;;;;5010943;28;21039;-75
2022/12/21 04:14:21;;;;;;;9.07;8.77;;;9.10;1.00;;;;;;5018874;28;20485;-77
2022/12/21 04:16:49;;;;;;;9.30;8.80;;;9.10;1.00;;;;;;5015180;28;20487;-74
2022/12/21 04:22:07;;;;;;;9.37;8.97;;;9.10;1.00;;;;;;5013816;28;20468;-76
2022/12/21 04:30:12;;;;;;;9.60;9.20;;;9.10;2.70;;;;;;5005091;28;20552;-76
2022/12/21 04:32:40;;;;;;;9.70;9.40;;;9.10;4.20;;;;;;5010341;28;20450;-76
2022/12/21 04:35:09;;;;;;;10.17;9.77;;;9.10;5.40;;;;;;5009737;28;20461;-77
2022/12/21 04:37:38;;;;;;;9.87;9.57;;;9.10;3.90;;;;;;5013767;28;20495;-76
2022/12/21 04:40:08;;;;;;;10.00;9.50;;;9.20;11.20;;;;;;5016767;28;20471;-75
2022/12/21 04:42:38;;;;;;;9.50;9.20;;;9.20;4.20;;;;;;5011119;28;20468;-76
2022/12/21 04:45:07;;;;;;;9.60;9.30;;;9.30;1.00;;;;;;5008598;28;20480;-76
2022/12/21 04:47:36;;;;;;;9.93;9.57;;;9.30;1.40;;;;;;5010736;28;20484;-76
2022/12/21 04:50:04;;;;;;;9.73;9.47;;;9.20;4.30;;;;;;5006898;28;20461;-77
2022/12/21 04:52:33;;;;;;;9.20;8.90;;;9.30;2.50;;;;;;5011731;28;20889;-76
2022/12/21 04:55:03;;;;;;;9.60;9.10;;;9.30;1.00;;;;;;5011556;28;20545;-77
2022/12/21 04:57:32;;;;;;;9.60;9.27;;;9.30;12.80;;;;;;5009511;28;20819;-76
2022/12/21 05:00:01;;;;;;;9.97;9.63;;;9.40;6.70;;;;;;5011667;28;20479;-77
2022/12/21 05:02:29;;;;;;;9.77;9.37;;;9.40;7.50;;;;;;5008067;28;20447;-77
2022/12/21 05:04:57;;;;;;;9.97;9.60;;;9.40;8.60;;;;;;5006359;28;20843;-76
2022/12/21 05:07:26;;;;;;;10.30;9.93;;;9.40;6.70;;;;;;5009398;28;20479;-78
2022/12/21 05:09:54;;;;;;;10.27;10.03;;;9.30;6.90;;;;;;5008577;28;20457;-76
2022/12/21 05:12:24;;;;;;;10.40;10.10;;;9.30;6.70;;;;;;5004592;28;20464;-77
2022/12/21 05:14:53;;;;;;;11.00;10.60;;;9.30;3.90;;;;;;5012471;28;20485;-76
2022/12/21 05:17:21;;;;;;;9.90;9.60;;;9.30;6.30;;;;;;5007220;28;20472;-77
2022/12/21 05:19:49;;;;;;;10.63;10.33;;;9.30;6.60;;;;;;5010063;28;20511;-77
2022/12/21 05:22:19;;;;;;;10.50;10.20;;;9.30;8.50;;;;;;5009245;28;20447;-77
2022/12/21 05:24:47;;;;;;;11.40;10.90;;;9.30;14.30;;;;;;5007842;28;20473;-77
2022/12/21 05:27:15;;;;;;;10.70;10.40;;;9.20;26.70;;;;;;5011949;28;20487;-77
2022/12/21 05:29:44;;;;;;;11.30;11.00;;;9.20;27.10;;;;;;5007131;28;20465;-78
2022/12/21 05:32:13;;;;;;;11.30;10.90;;;9.20;36.80;;;;;;5010237;28;20459;-76
2022/12/21 05:34:41;;;;;;;11.20;10.70;;;9.30;40.60;;;;;;5004855;28;20481;-76
2022/12/21 05:37:09;;;;;;;11.57;10.93;;;9.20;41.50;;;;;;5011327;28;20618;-78
2022/12/21 05:39:37;;;;;;;10.47;9.97;;;9.20;51.50;;;;;;5012523;28;21087;-76
2022/12/21 05:42:06;;;;;;;12.00;11.70;;;9.20;59.30;;;;;;5006200;28;20455;-77
2022/12/21 05:44:34;;;;;;;11.30;11.00;;;9.20;60.80;;;;;;5011671;28;20555;-77
2022/12/21 05:47:03;;;;;;;11.83;11.43;;;9.20;69.80;;;;;;5010631;28;20476;-76
2022/12/21 05:49:32;;;;;;;11.47;11.17;;;9.20;73.30;;;;;;5009279;28;20445;-78
2022/12/21 05:52:00;;;;;;;11.80;11.50;;;9.20;82.00;;;;;;5013742;28;20475;-76
2022/12/21 05:54:28;;;;;;;13.40;12.77;;;9.20;91.70;;;;;;5010256;28;20453;-76
2022/12/21 05:56:56;;;;;;;17.53;16.10;;;9.20;95.00;;;;;;5005721;28;20480;-76
2022/12/21 05:59:25;;;;;;;11.67;11.37;;;9.30;96.00;;;;;;5008935;28;20471;-76
2022/12/21 06:01:54;;;;;;;11.83;11.53;;;9.10;98.00;;;;;;5012134;28;20466;-76
2022/12/21 06:04:24;;;;;;;12.80;12.30;;;9.10;99.90;;;;;;5013603;28;20490;-76
2022/12/21 06:06:52;;;;;;;11.70;11.30;;;9.20;99.90;;;;;;5009562;28;20482;-76
2022/12/21 06:09:23;;;;;;;12.97;11.97;;;9.20;99.90;;;;;;5005418;28;20464;-75
2022/12/21 06:11:51;;;;;;;12.93;12.53;;;9.20;99.90;;;;;;5011932;28;20468;-76
2022/12/21 06:14:19;;;;;;;13.60;13.00;;;9.10;99.90;;;;;;5012361;28;20449;-76
2022/12/21 06:16:47;;;;;;;12.90;12.43;;;9.10;99.90;;;;;;5015442;28;20479;-76
2022/12/21 06:19:16;;;;;;;13.40;12.90;;;9.20;99.90;;;;;;5013840;28;20451;-75
2022/12/21 06:21:45;;;;;;;13.23;12.73;;;9.20;99.90;;;;;;5010782;28;20471;-76
2022/12/21 06:24:14;;;;;;;13.33;12.80;;;9.20;99.90;;;;;;5008007;28;20531;-76
2022/12/21 06:26:42;;;;;;;13.30;12.80;;;9.20;99.90;;;;;;5001545;28;20475;-76
2022/12/21 06:29:16;;;;;;;13.40;12.90;;;9.20;99.90;;;;;;5004965;28;20447;-77
2022/12/21 06:31:44;;;;;;;14.57;13.97;;;9.20;99.90;;;;;;5005720;28;20604;-77
2022/12/21 06:34:13;;;;;;;14.00;13.60;;;9.20;99.90;;;;;;5009515;28;20454;-78
2022/12/21 06:36:41;;;;;;;15.20;14.50;;;9.20;99.90;;;;;;5008022;28;20491;-75
2022/12/21 06:39:11;;;;;;;14.88;14.30;;;9.20;99.90;;;;;;4998946;28;20459;-76
2022/12/21 06:41:39;;;;;;;14.87;14.37;;;9.10;99.90;;;;;;5003119;28;20200;-75
2022/12/21 06:44:08;;;;;;;14.40;13.90;;;9.10;99.90;;;;;;5012523;28;20852;-74
2022/12/21 06:46:36;;;;;;;16.10;15.10;;;9.20;99.90;;;;;;5006716;28;21190;-74
2022/12/21 06:49:05;;;;;;;14.23;13.83;;;9.10;99.90;;;;;;5011369;28;20462;-75
2022/12/21 06:51:33;;;;;;;14.10;13.63;;;9.10;99.90;;;;;;5014082;28;20449;-76
2022/12/21 06:54:01;;;;;;;14.47;13.97;;;9.20;99.90;;;;;;5010643;28;20900;-76
2022/12/21 06:56:32;;;;;;;14.40;13.90;;;9.10;99.90;;;;;;5015905;28;20468;-75
2022/12/21 06:59:00;;;;;;;14.07;13.57;;;9.20;99.90;;;;;;5009040;28;22173;-76
2022/12/21 07:01:32;;;;;;;14.30;13.90;;;9.20;99.90;;;;;;5012293;28;20473;-75
2022/12/21 07:04:00;;;;;;;14.07;13.57;;;9.10;99.90;;;;;;5012599;28;20451;-76
2022/12/21 07:06:31;;;;;;;14.50;14.10;;;9.20;99.90;;;;;;5019501;28;20459;-76
2022/12/21 07:08:59;;;;;;;14.13;13.73;;;9.20;99.90;;;;;;5018624;28;20570;-76
2022/12/21 07:11:29;;;;;;;14.30;13.90;;;9.30;99.90;;;;;;5018972;28;20458;-76
2022/12/21 07:14:00;;;;;;;14.37;13.90;;;9.30;99.90;;;;;;5015483;28;20464;-74
2022/12/21 07:16:28;;;;;;;14.57;14.17;;;9.20;99.90;;;;;;5020445;28;20498;-73
2022/12/21 07:18:57;;;;;;;14.90;14.30;;;9.20;99.90;;;;;;5016716;28;20473;-77
2022/12/21 07:21:25;;;;;;;15.07;14.57;;;9.20;99.90;;;;;;5016823;28;20459;-77
2022/12/21 07:23:54;;;;;;;14.30;13.90;;;9.20;99.90;;;;;;5016707;28;20463;-76
2022/12/21 07:26:23;;;;;;;14.77;14.37;;;9.20;99.90;;;;;;5018541;28;20523;-77
2022/12/21 07:28:52;;;;;;;14.30;13.90;;;9.20;99.90;;;;;;5017874;28;20458;-76
2022/12/21 07:31:23;;;;;;;14.50;14.10;;;9.20;99.90;;;;;;5014952;28;21037;-77
2022/12/21 07:33:51;;;;;;;14.20;13.80;;;9.20;99.90;;;;;;5018014;28;20465;-76
2022/12/21 07:36:20;;;;;;;14.70;14.20;;;9.20;99.90;;;;;;5018142;28;20455;-76
2022/12/21 07:38:48;;;;;;;14.30;13.90;;;9.30;99.90;;;;;;5017010;28;21008;-78
2022/12/21 07:41:18;;;;;;;14.13;13.63;;;9.30;99.90;;;;;;5019430;28;20458;-76
2022/12/21 07:43:46;;;;;;;14.20;13.73;;;9.20;99.90;;;;;;5011532;28;20821;-75
2022/12/21 07:46:16;;;;;;;13.90;13.40;;;9.20;99.90;;;;;;5018953;28;20860;-76
2022/12/21 07:48:46;;;;;;;14.13;13.63;;;9.20;99.90;;;;;;5017408;28;20507;-75
2022/12/21 07:51:14;;;;;;;13.97;13.47;;;9.20;99.90;;;;;;5014057;28;20461;-76
2022/12/21 07:53:43;;;;;;;13.80;13.43;;;9.30;99.90;;;;;;5016631;28;20447;-75
2022/12/21 07:56:14;;;;;;;13.90;13.50;;;9.20;99.90;;;;;;5018067;28;20463;-77
2022/12/21 07:58:42;;;;;;;13.97;13.57;;;9.30;99.90;;;;;;5009407;28;20495;-75
2022/12/21 08:01:14;;;;;;;14.33;13.83;;;9.20;99.90;;;;;;5012748;28;20465;-75
2022/12/21 08:03:44;;;;;;;14.07;13.77;;;9.20;99.90;;;;;;5011730;28;20466;-75
2022/12/21 08:06:15;;;;;;;14.90;14.40;;;9.30;99.90;;;;;;5016647;28;20479;-76
2022/12/21 08:08:43;;;;;;;15.07;14.50;;;9.30;99.90;;;;;;5014075;28;20546;-75
2022/12/21 08:11:14;;;;;;;14.50;14.10;;;9.30;99.90;;;;;;5017243;28;20458;-74
2022/12/21 08:13:43;;;;;;;15.73;14.67;;;9.30;99.90;;;;;;5017630;28;20458;-76
2022/12/21 08:16:13;;;;;;;15.90;15.30;;;9.30;99.90;;;;;;5014564;28;20446;-76
2022/12/21 08:18:42;;;;;;;14.20;13.70;;;9.20;99.90;;;;;;5008327;28;20469;-79
2022/12/21 08:21:11;;;;;;;15.23;14.57;;;9.20;99.90;;;;;;5009503;28;21058;-74
2022/12/21 08:23:40;;;;;;;14.30;13.90;;;9.20;99.90;;;;;;5012229;28;20456;-77
2022/12/21 08:26:10;;;;;;;16.50;15.80;;;9.20;99.90;;;;;;5007997;28;21088;-78
2022/12/21 08:28:39;;;;;;;14.40;13.93;;;9.20;99.90;;;;;;5016446;28;20682;-76
2022/12/21 08:31:10;;;;;;;14.30;13.90;;;9.10;99.90;;;;;;5009997;28;20469;-76
2022/12/21 08:33:41;;;;;;;14.57;14.07;;;9.20;99.90;;;;;;5009716;28;20453;-76
2022/12/21 08:36:10;;;;;;;15.10;14.47;;;9.20;99.90;;;;;;5007323;28;20456;-76
2022/12/21 08:38:40;;;;;;;14.30;13.90;;;9.20;99.90;;;;;;5008238;28;20943;-78
2022/12/21 08:41:28;;;;;;;15.30;14.90;;;9.10;99.90;;;;;;5012932;28;20566;-76
2022/12/21 08:43:57;;;;;;;14.50;14.10;;;9.10;99.90;;;;;;5011953;28;20493;-75
2022/12/21 08:46:25;;;;;;;14.80;14.27;;;9.10;99.90;;;;;;5006943;28;20480;-74
2022/12/21 08:48:54;;;;;;;14.87;14.37;;;9.10;99.90;;;;;;5017209;28;20457;-76
2022/12/21 08:51:22;;;;;;;15.17;14.60;;;9.10;99.90;;;;;;5010548;28;20458;-76
2022/12/21 08:53:53;;;;;;;14.40;13.90;;;9.20;99.90;;;;;;5013547;28;20545;-76
2022/12/21 08:56:22;;;;;;;14.57;14.07;;;9.10;99.90;;;;;;5012454;28;20455;-75
2022/12/21 08:58:51;;;;;;;13.77;13.37;;;9.10;99.90;;;;;;5000820;28;20473;-74
2022/12/21 09:01:20;;;;;;;14.00;13.57;;;9.10;99.90;;;;;;5000987;28;20513;-74
2022/12/21 09:03:49;;;;;;;14.33;13.90;;;9.20;99.90;;;;;;5008036;28;20457;-75
2022/12/21 09:06:17;;;;;;;13.23;12.83;;;9.20;99.90;;;;;;5001557;28;20479;-75
2022/12/21 09:08:46;;;;;;;14.47;13.60;;;9.20;99.90;;;;;;5005252;28;20455;-76
2022/12/21 09:11:17;;;;;;;13.43;12.83;;;9.30;99.90;;;;;;5005189;28;22985;-75
2022/12/21 09:13:45;;;;;;;13.27;12.80;;;9.10;99.90;;;;;;5003610;28;20865;-76
2022/12/21 09:16:15;;;;;;;13.40;13.00;;;9.10;99.90;;;;;;5003936;28;20465;-75
2022/12/21 09:18:44;;;;;;;13.20;12.80;;;9.00;99.90;;;;;;5013520;28;20519;-76
2022/12/21 09:21:13;;;;;;;13.73;13.33;;;9.10;99.90;;;;;;5002663;28;20463;-76
2022/12/21 09:23:42;;;;;;;16.50;13.40;;;9.10;99.90;;;;;;5004384;28;20566;-76
2022/12/21 09:26:11;;;;;;;13.23;12.73;;;9.10;99.90;;;;;;5004891;28;20475;-74
2022/12/21 09:28:41;;;;;;;14.53;14.03;;;9.10;99.90;;;;;;5003997;28;20485;-75
2022/12/21 09:31:12;;;;;;;14.37;13.87;;;9.10;99.90;;;;;;5005775;28;20511;-75
2022/12/21 09:33:47;;;;;;;15.10;14.17;;;9.10;99.90;;;;;;5005930;28;20460;-75
2022/12/21 09:36:16;;;;;;;14.87;14.27;;;9.10;99.90;;;;;;5005249;28;20491;-74
2022/12/21 09:38:44;;;;;;;14.23;13.53;;;9.10;99.90;;;;;;5006476;28;20477;-74
2022/12/21 09:41:27;;;;;;;14.33;13.80;;;9.20;99.90;;;;;;5009581;28;20574;-73
2022/12/21 09:44:12;;;;;;;13.77;13.20;;;9.20;99.90;;;;;;5006946;28;20566;-74
2022/12/21 09:46:43;;;;;;;14.07;13.60;;;9.30;99.90;;;;;;5002713;28;20966;-75
2022/12/21 09:49:16;;;;;;;14.60;13.90;;;9.30;99.90;;;;;;5009852;28;20467;-78
2022/12/21 09:51:52;;;;;;;14.63;13.97;;;9.30;99.90;;;;;;5002921;28;20453;-74
2022/12/21 09:54:24;;;;;;;14.50;13.70;;;9.20;99.90;;;;;;5002762;28;20483;-75
2022/12/21 09:56:54;;;;;;;13.97;13.53;;;9.20;99.90;;;;;;5013307;28;20802;-74
2022/12/21 09:59:24;;;;;;;16.57;15.73;;;9.30;99.90;;;;;;5015196;28;20478;-74
2022/12/21 10:02:01;;;;;;;14.50;13.80;;;9.30;99.90;;;;;;5013807;28;20462;-75
2022/12/21 10:04:45;;;;;;;15.00;14.23;;;9.30;99.90;;;;;;5011064;28;20539;-75
2022/12/21 10:08:08;;;;;;;13.90;13.20;;;9.30;99.90;;;;;;5016093;28;20879;-76
2022/12/21 10:10:40;;;;;;;14.30;13.70;;;9.30;99.90;;;;;;5001417;28;20484;-76
2022/12/21 10:13:22;;;;;;;14.23;13.73;;;9.30;99.90;;;;;;5015613;28;20453;-75
2022/12/21 10:16:06;;;;;;;14.73;14.13;;;9.40;99.90;;;;;;5015720;28;20471;-75
2022/12/21 10:18:41;;;;;;;16.30;15.67;;;9.40;99.90;;;;;;5007445;28;20479;-77
2022/12/21 10:21:19;;;;;;;15.03;14.53;;;9.40;99.90;;;;;;5008114;28;20459;-77
2022/12/21 10:23:50;;;;;;;14.83;14.13;;;9.40;98.60;;;;;;5005876;28;20464;-78
2022/12/21 10:26:22;;;;;;;15.40;14.60;;;9.50;99.90;;;;;;5007525;28;21058;-76
2022/12/21 10:28:59;;;;;;;14.47;13.83;;;9.40;99.30;;;;;;5010367;28;20451;-76
2022/12/21 10:31:34;;;;;;;15.33;14.63;;;9.40;99.90;;;;;;5016894;28;20516;-76
2022/12/21 10:34:12;;;;;;;15.40;14.80;;;9.50;99.90;;;;;;5013300;28;20458;-78
2022/12/21 10:36:42;;;;;;;16.03;15.40;;;9.50;99.90;;;;;;5018231;28;20966;-71
2022/12/21 10:39:14;;;;;;;15.30;14.70;;;9.50;99.90;;;;;;5012232;28;20483;-73
2022/12/21 10:41:51;;;;;;;16.10;15.20;;;9.80;95.60;;;;;;5017122;28;20445;-76
2022/12/21 10:44:19;;;;;;;17.40;16.63;;;10.10;64.20;;;;;;5016693;28;20888;-76
2022/12/21 10:46:49;;;;;;;17.07;16.47;;;10.50;22.50;;;;;;5005091;28;20570;-76
2022/12/21 10:49:23;;;;;;;17.30;16.70;;;11.10;1.00;;;;;;5011697;28;20806;-77
2022/12/21 10:51:52;;;;;;;16.77;16.07;;;11.40;1.00;;;;;;5010738;28;21122;-76
2022/12/21 10:54:26;;;;;;;17.10;15.77;;;11.10;1.00;;;;;;5010304;28;20472;-75
2022/12/21 10:56:58;;;;;;;15.63;15.13;;;10.80;1.00;;;;;;5016601;28;20498;-75
2022/12/21 10:59:30;;;;;;;14.87;14.27;;;10.70;1.00;;;;;;5010247;28;20459;-75
2022/12/21 11:01:59;;;;;;;16.50;15.90;;;10.80;1.00;;;;;;5008371;28;20506;-76
2022/12/21 11:04:31;;;;;;;16.90;15.83;;;10.80;1.00;;;;;;5011844;28;21011;-78
2022/12/21 11:07:02;;;;;;;16.27;15.47;;;10.60;1.00;;;;;;5012438;28;20494;-75
2022/12/21 11:09:56;;;;;;;19.73;18.63;;;10.70;1.00;;;;;;5013832;28;20488;-79
2022/12/21 11:12:51;;;;;;;19.60;18.80;;;11.10;1.00;;;;;;5011276;28;20464;-79
2022/12/21 11:15:22;;;;;;;19.67;18.80;;;10.90;1.00;;;;;;5018089;28;20448;-77
2022/12/21 11:18:41;;;;;;;19.33;18.53;;;10.60;1.00;;;;;;5005181;28;20480;-79
2022/12/21 11:21:26;;;;;;;19.50;18.70;;;10.70;1.00;;;;;;5003106;28;20476;-77
2022/12/21 11:23:57;;;;;;;19.00;18.30;;;10.60;1.00;;;;;;5013020;28;20455;-74
2022/12/21 11:26:30;;;;;;;19.30;18.60;;;10.80;1.00;;;;;;5014786;28;20533;-78
2022/12/21 11:29:05;;;;;;;18.77;18.10;;;11.30;1.00;;;;;;5014135;28;20461;-77
2022/12/21 11:31:36;;;;;;;19.07;18.27;;;11.50;1.00;;;;;;5013122;28;20549;-76
2022/12/21 11:34:26;;;;;;;19.47;18.67;;;11.50;1.00;;;;;;5011379;28;20455;-78
2022/12/21 11:36:56;;;;;;;18.33;17.73;;;11.50;1.00;;;;;;5016592;28;21035;-81
2022/12/21 11:39:24;;;;;;;19.50;18.50;;;11.60;1.00;;;;;;5015498;28;20813;-81
2022/12/21 11:41:54;;;;;;;19.43;18.67;;;11.80;1.00;;;;;;5013104;28;20468;-79
2022/12/21 11:44:25;;;;;;;16.90;16.23;;;11.80;99.90;;;;;;5011151;28;21010;-78
2022/12/21 11:47:11;;;;;;;18.77;18.07;;;11.60;1.00;;;;;;5013759;28;20556;-78
2022/12/21 11:50:05;;;;;;;19.33;18.67;;;11.60;1.00;;;;;;5008122;28;20976;-76
2022/12/21 11:52:51;;;;;;;18.67;18.07;;;11.80;1.00;;;;;;5002981;28;20466;-77
2022/12/21 11:55:28;;;;;;;18.40;17.77;;;11.90;1.00;;;;;;5010672;28;21307;-75
2022/12/21 11:58:12;;;;;;;18.37;17.63;;;11.80;1.00;;;;;;5010880;28;20490;-78
2022/12/21 12:00:52;;;;;;;18.50;17.80;;;11.80;1.00;;;;;;5013876;28;20468;-76
2022/12/21 12:03:36;;;;;;;17.90;17.40;;;11.80;1.00;;;;;;5012163;28;20481;-75
2022/12/21 12:06:43;;;;;;;17.93;17.30;;;11.60;1.00;;;;;;5014760;28;20999;-78
2022/12/21 12:09:29;;;;;;;17.77;17.23;;;11.40;1.00;;;;;;5008397;28;20461;-79
2022/12/21 12:12:06;;;;;;;18.77;18.17;;;11.50;1.00;;;;;;5013102;28;20973;-78
2022/12/21 12:14:58;;;;;;;17.90;17.00;;;11.40;1.00;;;;;;5010595;28;20450;-77
2022/12/21 12:17:42;;;;;;;18.03;17.33;;;11.40;1.00;;;;;;5007423;28;20465;-76
2022/12/21 12:20:29;;;;;;;18.77;17.87;;;11.40;1.00;;;;;;5009536;28;20474;-76
2022/12/21 12:23:09;;;;;;;17.23;16.70;;;11.50;1.00;;;;;;5007167;28;20454;-79
2022/12/21 12:25:56;;;;;;;16.40;16.00;;;11.50;1.00;;;;;;5008576;28;21092;-77
2022/12/21 12:28:44;;;;;;;16.60;16.20;;;11.50;1.00;;;;;;5015876;28;20481;-78
2022/12/21 12:31:24;;;;;;;17.07;16.57;;;11.50;1.00;;;;;;5007949;28;21202;-79
2022/12/21 12:34:24;;;;;;;16.37;15.97;;;11.50;1.00;;;;;;5015590;28;20459;-76
2022/12/21 12:37:00;;;;;;;17.43;16.90;;;11.60;1.00;;;;;;5008625;28;20483;-76
2022/12/21 12:39:39;;;;;;;17.40;16.80;;;11.70;1.00;;;;;;5012875;28;20556;-76
2022/12/21 12:42:16;;;;;;;16.83;16.33;;;11.80;1.00;;;;;;5004522;28;20524;-76
2022/12/21 12:44:58;;;;;;;16.90;16.40;;;11.60;1.00;;;;;;5009648;28;20648;-75
2022/12/21 12:47:37;;;;;;;16.43;15.93;;;11.50;1.00;;;;;;5012711;28;21003;-76
2022/12/21 12:50:21;;;;;;;15.93;15.53;;;11.40;1.00;;;;;;5011533;28;20456;-78
2022/12/21 12:53:09;;;;;;;15.50;15.07;;;11.10;1.00;;;;;;5005018;28;20449;-76
2022/12/21 12:55:46;;;;;;;15.90;15.40;;;11.10;1.00;;;;;;5012920;28;20541;-77
2022/12/21 12:58:24;;;;;;;16.07;15.57;;;11.10;1.00;;;;;;5014083;28;20467;-78
2022/12/21 13:00:59;;;;;;;15.90;15.40;;;11.10;1.00;;;;;;5011207;28;21304;-76
2022/12/21 13:03:43;;;;;;;15.73;15.23;;;11.10;1.00;;;;;;5016190;28;20451;-76
2022/12/21 13:06:24;;;;;;;15.60;15.10;;;11.00;1.00;;;;;;5013714;28;20502;-76
2022/12/21 13:08:59;;;;;;;16.17;15.47;;;11.10;1.00;;;;;;5011336;28;21076;-76
2022/12/21 13:11:38;;;;;;;15.90;15.40;;;11.10;1.00;;;;;;5017704;28;20574;-79
2022/12/21 13:14:17;;;;;;;15.87;15.30;;;11.00;1.00;;;;;;5012381;28;20463;-77
2022/12/21 13:16:55;;;;;;;15.70;15.20;;;11.00;1.00;;;;;;5014297;28;21188;-77
2022/12/21 13:19:27;;;;;;;15.30;14.90;;;11.00;1.00;;;;;;5013773;28;20473;-79
2022/12/21 13:21:59;;;;;;;15.50;15.07;;;11.00;1.00;;;;;;5013581;28;20455;-80
2022/12/21 13:24:36;;;;;;;16.30;15.50;;;11.00;1.00;;;;;;5031692;28;20463;-80
2022/12/21 13:27:08;;;;;;;16.27;15.60;;;11.00;1.00;;;;;;5020353;28;20463;-79
2022/12/21 13:29:43;;;;;;;15.90;15.40;;;11.20;1.00;;;;;;5015085;28;20470;-80
2022/12/21 13:32:13;;;;;;;15.80;15.40;;;11.20;1.00;;;;;;5012065;28;20492;-77